sensor_id;sensor_type;location;lat;lon;timestamp;pressure;altitude;pressure_sealevel;temperature;humidity
4123;BME280;2075;51.062;6.920;2023-04-08T00:01:11;-8135.88;;;-144.48;100.00
4123;BME280;2075;51.062;6.920;2023-04-08T00:03:56;-8135.88;;;-144.48;100.00
4123;BME280;2075;51.062;6.920;2023-04-08T00:06:42;-8388.09;;;-144.48;100.00
4123;BME280;2075;51.062;6.920;2023-04-08T00:09:31;-7883.59;;;-144.48;100.00
4123;BME280;2075;51.062;6.920;2023-04-08T00:12:18;-7126.69;;;-144.48;100.00
4123;BME280;2075;51.062;6.920;2023-04-08T00:15:06;-7379.00;;;-144.48;100.00
4123;BME280;2075;51.062;6.920;2023-04-08T00:17:55;-7883.59;;;-144.48;100.00
4123;BME280;2075;51.062;6.920;2023-04-08T00:20:41;-6874.34;;;-144.48;100.00
4123;BME280;2075;51.062;6.920;2023-04-08T00:23:27;-6621.97;;;-144.48;100.00
4123;BME280;2075;51.062;6.920;2023-04-08T00:26:12;-6874.34;;;-144.48;100.00
4123;BME280;2075;51.062;6.920;2023-04-08T00:29:01;-6874.34;;;-144.48;100.00
4123;BME280;2075;51.062;6.920;2023-04-08T00:31:46;-7126.69;;;-144.48;100.00
4123;BME280;2075;51.062;6.920;2023-04-08T00:34:32;-7379.00;;;-144.48;100.00
4123;BME280;2075;51.062;6.920;2023-04-08T00:37:17;-7631.31;;;-144.48;100.00
4123;BME280;2075;51.062;6.920;2023-04-08T00:40:05;-7883.59;;;-144.48;100.00
4123;BME280;2075;51.062;6.920;2023-04-08T00:42:51;-8135.88;;;-144.48;100.00
4123;BME280;2075;51.062;6.920;2023-04-08T00:45:38;-8640.34;;;-144.48;100.00
4123;BME280;2075;51.062;6.920;2023-04-08T00:48:24;-8640.34;;;-144.48;100.00
4123;BME280;2075;51.062;6.920;2023-04-08T00:51:10;-9144.72;;;-144.48;100.00
4123;BME280;2075;51.062;6.920;2023-04-08T00:53:56;-8892.53;;;-144.48;100.00
4123;BME280;2075;51.062;6.920;2023-04-08T00:56:43;-8640.34;;;-144.48;100.00
4123;BME280;2075;51.062;6.920;2023-04-08T00:59:30;-8388.09;;;-144.48;100.00
4123;BME280;2075;51.062;6.920;2023-04-08T01:02:27;-8388.09;;;-144.48;100.00
4123;BME280;2075;51.062;6.920;2023-04-08T01:05:22;-8135.88;;;-144.48;100.00
4123;BME280;2075;51.062;6.920;2023-04-08T01:08:13;-7883.59;;;-144.48;100.00
4123;BME280;2075;51.062;6.920;2023-04-08T01:11:02;-8640.34;;;-144.48;100.00
4123;BME280;2075;51.062;6.920;2023-04-08T01:13:53;-10909.50;;;-144.48;100.00
4123;BME280;2075;51.062;6.920;2023-04-08T01:16:40;-10909.50;;;-144.48;100.00
4123;BME280;2075;51.062;6.920;2023-04-08T01:19:30;-11161.53;;;-144.48;100.00
4123;BME280;2075;51.062;6.920;2023-04-08T01:22:23;-11413.53;;;-144.48;100.00
4123;BME280;2075;51.062;6.920;2023-04-08T01:25:16;-11413.53;;;-144.48;100.00
4123;BME280;2075;51.062;6.920;2023-04-08T01:28:06;-11413.53;;;-144.48;100.00
4123;BME280;2075;51.062;6.920;2023-04-08T01:30:54;-11665.53;;;-144.48;100.00
4123;BME280;2075;51.062;6.920;2023-04-08T01:33:41;-11413.53;;;-144.48;100.00
4123;BME280;2075;51.062;6.920;2023-04-08T01:36:29;-11161.53;;;-144.48;100.00
4123;BME280;2075;51.062;6.920;2023-04-08T01:39:17;-11413.53;;;-144.48;100.00
4123;BME280;2075;51.062;6.920;2023-04-08T01:42:04;-11413.53;;;-144.48;100.00
4123;BME280;2075;51.062;6.920;2023-04-08T01:44:52;-11161.53;;;-144.48;100.00
4123;BME280;2075;51.062;6.920;2023-04-08T01:47:40;-11413.53;;;-144.48;100.00
4123;BME280;2075;51.062;6.920;2023-04-08T01:50:29;-11665.53;;;-144.48;100.00
4123;BME280;2075;51.062;6.920;2023-04-08T01:53:15;-11665.53;;;-144.48;100.00
4123;BME280;2075;51.062;6.920;2023-04-08T01:56:05;-11665.53;;;-144.48;100.00
4123;BME280;2075;51.062;6.920;2023-04-08T01:58:51;-11665.53;;;-144.48;100.00
4123;BME280;2075;51.062;6.920;2023-04-08T02:01:43;-11665.53;;;-144.48;100.00
4123;BME280;2075;51.062;6.920;2023-04-08T02:04:29;-11665.53;;;-144.48;100.00
4123;BME280;2075;51.062;6.920;2023-04-08T02:07:16;-11665.53;;;-144.48;100.00
4123;BME280;2075;51.062;6.920;2023-04-08T02:10:08;-11665.53;;;-144.48;100.00
4123;BME280;2075;51.062;6.920;2023-04-08T02:12:57;-11665.53;;;-144.48;100.00
4123;BME280;2075;51.062;6.920;2023-04-08T02:15:49;-11665.53;;;-144.48;100.00
4123;BME280;2075;51.062;6.920;2023-04-08T02:19:19;-11665.53;;;-144.48;100.00
4123;BME280;2075;51.062;6.920;2023-04-08T02:22:17;-11413.53;;;-144.48;100.00
4123;BME280;2075;51.062;6.920;2023-04-08T02:25:15;-11413.53;;;-144.48;100.00
4123;BME280;2075;51.062;6.920;2023-04-08T02:28:20;-11413.53;;;-144.48;100.00
4123;BME280;2075;51.062;6.920;2023-04-08T02:31:15;-11413.53;;;-144.48;100.00
4123;BME280;2075;51.062;6.920;2023-04-08T02:34:19;-11413.53;;;-144.48;100.00
4123;BME280;2075;51.062;6.920;2023-04-08T02:37:16;-11665.53;;;-144.48;100.00
4123;BME280;2075;51.062;6.920;2023-04-08T02:40:02;-11665.53;;;-144.48;100.00
4123;BME280;2075;51.062;6.920;2023-04-08T02:42:48;-11413.53;;;-144.48;100.00
4123;BME280;2075;51.062;6.920;2023-04-08T02:45:39;-11161.53;;;-144.48;100.00
4123;BME280;2075;51.062;6.920;2023-04-08T02:48:27;-11161.53;;;-144.48;100.00
4123;BME280;2075;51.062;6.920;2023-04-08T02:51:17;-11665.53;;;-144.48;100.00
4123;BME280;2075;51.062;6.920;2023-04-08T02:54:06;-11665.53;;;-144.48;100.00
4123;BME280;2075;51.062;6.920;2023-04-08T02:57:18;-11413.53;;;-144.48;100.00
4123;BME280;2075;51.062;6.920;2023-04-08T03:00:19;-11665.53;;;-144.48;100.00
4123;BME280;2075;51.062;6.920;2023-04-08T03:03:46;-11665.53;;;-144.48;100.00
4123;BME280;2075;51.062;6.920;2023-04-08T03:07:27;-11667.00;;;-144.48;100.00
4123;BME280;2075;51.062;6.920;2023-04-08T03:10:41;-11665.53;;;-144.48;100.00
4123;BME280;2075;51.062;6.920;2023-04-08T03:13:30;-11413.53;;;-144.48;100.00
4123;BME280;2075;51.062;6.920;2023-04-08T03:16:17;-11161.53;;;-144.48;100.00
4123;BME280;2075;51.062;6.920;2023-04-08T03:19:11;-11161.53;;;-144.48;100.00
4123;BME280;2075;51.062;6.920;2023-04-08T03:29:16;-11413.53;;;-144.48;100.00
4123;BME280;2075;51.062;6.920;2023-04-08T03:32:42;-11413.53;;;-144.48;100.00
4123;BME280;2075;51.062;6.920;2023-04-08T03:35:36;-11413.53;;;-144.48;100.00
4123;BME280;2075;51.062;6.920;2023-04-08T03:38:38;-11413.53;;;-144.48;100.00
4123;BME280;2075;51.062;6.920;2023-04-08T03:41:37;-11665.53;;;-144.48;100.00
4123;BME280;2075;51.062;6.920;2023-04-08T03:44:27;-11665.53;;;-144.48;100.00
4123;BME280;2075;51.062;6.920;2023-04-08T03:47:13;-11665.53;;;-144.48;100.00
4123;BME280;2075;51.062;6.920;2023-04-08T03:50:00;-11413.53;;;-144.48;100.00
4123;BME280;2075;51.062;6.920;2023-04-08T03:52:48;-11665.53;;;-144.48;100.00
4123;BME280;2075;51.062;6.920;2023-04-08T03:55:37;-11413.53;;;-144.48;100.00
4123;BME280;2075;51.062;6.920;2023-04-08T03:58:28;-11665.53;;;-144.48;100.00
4123;BME280;2075;51.062;6.920;2023-04-08T04:01:19;-11413.53;;;-144.48;100.00
4123;BME280;2075;51.062;6.920;2023-04-08T04:04:05;-11161.53;;;-144.48;100.00
4123;BME280;2075;51.062;6.920;2023-04-08T04:06:51;-11413.53;;;-144.48;100.00
4123;BME280;2075;51.062;6.920;2023-04-08T04:09:37;-11665.53;;;-144.48;100.00
4123;BME280;2075;51.062;6.920;2023-04-08T04:12:23;-11665.53;;;-144.48;100.00
4123;BME280;2075;51.062;6.920;2023-04-08T04:15:10;-11665.53;;;-144.48;100.00
4123;BME280;2075;51.062;6.920;2023-04-08T04:18:04;-11665.53;;;-144.48;100.00
4123;BME280;2075;51.062;6.920;2023-04-08T04:20:53;-11667.00;;;-144.48;100.00
4123;BME280;2075;51.062;6.920;2023-04-08T04:23:39;-11667.00;;;-144.48;100.00
4123;BME280;2075;51.062;6.920;2023-04-08T04:26:29;-11667.00;;;-144.48;100.00
4123;BME280;2075;51.062;6.920;2023-04-08T04:29:16;-11667.00;;;-144.48;100.00
4123;BME280;2075;51.062;6.920;2023-04-08T04:32:05;-11667.00;;;-144.48;100.00
4123;BME280;2075;51.062;6.920;2023-04-08T04:34:52;-11667.00;;;-144.48;100.00
4123;BME280;2075;51.062;6.920;2023-04-08T04:37:41;-11667.00;;;-144.48;100.00
4123;BME280;2075;51.062;6.920;2023-04-08T04:40:29;-11667.00;;;-144.48;100.00
4123;BME280;2075;51.062;6.920;2023-04-08T04:43:15;-11667.00;;;-144.48;100.00
4123;BME280;2075;51.062;6.920;2023-04-08T04:46:02;-11667.00;;;-144.48;100.00
4123;BME280;2075;51.062;6.920;2023-04-08T04:48:58;-11667.00;;;-144.48;100.00
4123;BME280;2075;51.062;6.920;2023-04-08T04:51:48;-11667.00;;;-144.48;100.00
4123;BME280;2075;51.062;6.920;2023-04-08T04:54:36;-11667.00;;;-144.48;100.00
4123;BME280;2075;51.062;6.920;2023-04-08T04:57:22;-11667.00;;;-144.48;100.00
4123;BME280;2075;51.062;6.920;2023-04-08T05:00:09;-11667.00;;;-144.48;100.00
4123;BME280;2075;51.062;6.920;2023-04-08T05:02:55;-11667.00;;;-144.48;100.00
4123;BME280;2075;51.062;6.920;2023-04-08T05:05:41;-11667.00;;;-144.48;100.00
4123;BME280;2075;51.062;6.920;2023-04-08T05:08:31;-11667.00;;;-144.48;100.00
4123;BME280;2075;51.062;6.920;2023-04-08T05:11:16;-11667.00;;;-144.48;100.00
4123;BME280;2075;51.062;6.920;2023-04-08T05:14:02;-11667.00;;;-144.48;100.00
4123;BME280;2075;51.062;6.920;2023-04-08T05:16:50;-11667.00;;;-144.48;100.00
4123;BME280;2075;51.062;6.920;2023-04-08T05:19:37;-11667.00;;;-144.48;100.00
4123;BME280;2075;51.062;6.920;2023-04-08T05:22:24;-11667.00;;;-144.48;100.00
4123;BME280;2075;51.062;6.920;2023-04-08T05:25:12;-11667.00;;;-144.48;100.00
4123;BME280;2075;51.062;6.920;2023-04-08T05:27:58;-11667.00;;;-144.48;100.00
4123;BME280;2075;51.062;6.920;2023-04-08T05:30:48;-11667.00;;;-144.48;100.00
4123;BME280;2075;51.062;6.920;2023-04-08T05:33:33;-11667.00;;;-144.48;100.00
4123;BME280;2075;51.062;6.920;2023-04-08T05:36:20;-11667.00;;;-144.48;100.00
4123;BME280;2075;51.062;6.920;2023-04-08T05:39:08;-11667.00;;;-144.48;100.00
4123;BME280;2075;51.062;6.920;2023-04-08T05:41:55;-11667.00;;;-144.48;100.00
4123;BME280;2075;51.062;6.920;2023-04-08T05:44:43;-11667.00;;;-144.48;100.00
4123;BME280;2075;51.062;6.920;2023-04-08T05:47:29;-11667.00;;;-144.48;100.00
4123;BME280;2075;51.062;6.920;2023-04-08T05:50:15;-11667.00;;;-144.48;100.00
4123;BME280;2075;51.062;6.920;2023-04-08T05:53:00;-11665.53;;;-144.48;100.00
4123;BME280;2075;51.062;6.920;2023-04-08T05:55:46;-10909.50;;;-144.48;100.00
4123;BME280;2075;51.062;6.920;2023-04-08T05:58:33;-9396.91;;;-144.48;100.00
4123;BME280;2075;51.062;6.920;2023-04-08T06:01:19;-7379.00;;;-144.48;100.00
4123;BME280;2075;51.062;6.920;2023-04-08T06:04:05;-3844.69;;;-144.48;100.00
4123;BME280;2075;51.062;6.920;2023-04-08T06:06:51;-1570.63;;;-144.48;100.00
4123;BME280;2075;51.062;6.920;2023-04-08T06:09:38;11853.19;;;-144.48;100.00
4123;BME280;2075;51.062;6.920;2023-04-08T06:12:23;11853.19;;;-144.48;100.00
4123;BME280;2075;51.062;6.920;2023-04-08T06:15:10;74856.97;;;-144.48;100.00
4123;BME280;2075;51.062;6.920;2023-04-08T06:17:56;93361.66;;;-144.48;92.86
4123;BME280;2075;51.062;6.920;2023-04-08T06:20:41;93836.97;;;-144.48;82.33
4123;BME280;2075;51.062;6.920;2023-04-08T06:23:27;93843.06;;;-144.48;78.52
4123;BME280;2075;51.062;6.920;2023-04-08T06:26:12;93851.22;;;-144.48;75.34
4123;BME280;2075;51.062;6.920;2023-04-08T06:28:59;94015.75;;;-144.48;80.09
4123;BME280;2075;51.062;6.920;2023-04-08T06:31:47;94001.53;;;-144.48;86.31
4123;BME280;2075;51.062;6.920;2023-04-08T06:34:32;93832.91;;;-144.48;91.38
4123;BME280;2075;51.062;6.920;2023-04-08T06:37:18;91601.13;;;-144.48;98.35
4123;BME280;2075;51.062;6.920;2023-04-08T06:40:05;80955.47;;;-144.48;100.00
4123;BME280;2075;51.062;6.920;2023-04-08T06:42:50;79464.22;;;-144.48;100.00
4123;BME280;2075;51.062;6.920;2023-04-08T06:45:44;85173.72;;;-144.48;100.00
4123;BME280;2075;51.062;6.920;2023-04-08T06:48:31;88482.28;;;-144.48;100.00
4123;BME280;2075;51.062;6.920;2023-04-08T06:51:17;85589.16;;;-144.48;100.00
4123;BME280;2075;51.062;6.920;2023-04-08T06:54:03;88269.31;;;-144.48;99.81
4123;BME280;2075;51.062;6.920;2023-04-08T06:56:48;93761.81;;;-144.48;80.20
4123;BME280;2075;51.062;6.920;2023-04-08T06:59:34;93839.00;;;-144.48;75.93
4123;BME280;2075;51.062;6.920;2023-04-08T07:02:19;94009.66;;;-144.48;79.17
4123;BME280;2075;51.062;6.920;2023-04-08T07:05:07;94009.66;;;-144.48;87.62
4123;BME280;2075;51.062;6.920;2023-04-08T07:07:52;94038.09;;;-144.48;77.36
4123;BME280;2075;51.062;6.920;2023-04-08T07:10:38;93895.91;;;-144.48;69.97
4123;BME280;2075;51.062;6.920;2023-04-08T07:13:23;94001.53;;;-144.48;76.36
4123;BME280;2075;51.062;6.920;2023-04-08T07:16:09;94034.03;;;-144.48;78.88
4123;BME280;2075;51.062;6.920;2023-04-08T07:18:54;94090.91;;;-144.48;84.32
4123;BME280;2075;51.062;6.920;2023-04-08T07:21:41;93987.31;;;-144.48;81.19
4123;BME280;2075;51.062;6.920;2023-04-08T07:24:26;93887.78;;;-144.48;70.83
4123;BME280;2075;51.062;6.920;2023-04-08T07:27:12;94086.84;;;-144.48;77.82
4123;BME280;2075;51.062;6.920;2023-04-08T07:29:57;94099.03;;;-144.48;82.66
4123;BME280;2075;51.062;6.920;2023-04-08T07:32:42;94027.94;;;-144.48;83.26
4123;BME280;2075;51.062;6.920;2023-04-08T07:35:28;94062.47;;;-144.48;82.23
4123;BME280;2075;51.062;6.920;2023-04-08T07:38:16;94029.97;;;-144.48;77.10
4123;BME280;2075;51.062;6.920;2023-04-08T07:41:02;94068.56;;;-144.48;80.45
4123;BME280;2075;51.062;6.920;2023-04-08T07:43:47;94092.94;;;-144.48;85.57
4123;BME280;2075;51.062;6.920;2023-04-08T07:46:35;94078.72;;;-144.48;84.04
4123;BME280;2075;51.062;6.920;2023-04-08T07:49:21;94036.06;;;-144.48;86.65
4123;BME280;2075;51.062;6.920;2023-04-08T07:52:06;94017.78;;;-144.48;89.11
4123;BME280;2075;51.062;6.920;2023-04-08T07:54:56;93899.97;;;-144.48;89.95
4123;BME280;2075;51.062;6.920;2023-04-08T07:57:42;93808.53;;;-144.48;91.54
4123;BME280;2075;51.062;6.920;2023-04-08T08:00:29;92949.38;;;-144.48;96.92
4123;BME280;2075;51.062;6.920;2023-04-08T08:03:15;93022.47;;;-144.48;95.90
4123;BME280;2075;51.062;6.920;2023-04-08T08:06:00;93455.09;;;-144.48;93.72
4123;BME280;2075;51.062;6.920;2023-04-08T08:08:46;93751.66;;;-144.48;91.02
4123;BME280;2075;51.062;6.920;2023-04-08T08:11:33;93924.34;;;-144.48;84.19
4123;BME280;2075;51.062;6.920;2023-04-08T08:14:24;93950.75;;;-144.48;87.94
4123;BME280;2075;51.062;6.920;2023-04-08T08:17:12;93985.28;;;-144.48;89.06
4123;BME280;2075;51.062;6.920;2023-04-08T08:19:57;93993.41;;;-144.48;88.59
4123;BME280;2075;51.062;6.920;2023-04-08T08:22:44;93942.63;;;-144.48;91.13
4123;BME280;2075;51.062;6.920;2023-04-08T08:25:29;93721.19;;;-144.48;92.65
4123;BME280;2075;51.062;6.920;2023-04-08T08:28:17;93629.78;;;-144.48;94.62
4123;BME280;2075;51.062;6.920;2023-04-08T08:31:02;93694.78;;;-144.48;93.24
4123;BME280;2075;51.062;6.920;2023-04-08T08:33:49;93700.88;;;-144.48;92.94
4123;BME280;2075;51.062;6.920;2023-04-08T08:36:34;93623.69;;;-144.48;93.40
4123;BME280;2075;51.062;6.920;2023-04-08T08:39:20;93221.53;;;-144.48;95.21
4123;BME280;2075;51.062;6.920;2023-04-08T08:42:05;93219.50;;;-144.48;94.25
4123;BME280;2075;51.062;6.920;2023-04-08T08:44:53;93863.41;;;-144.48;89.88
4123;BME280;2075;51.062;6.920;2023-04-08T08:47:38;93782.13;;;-144.48;90.89
4123;BME280;2075;51.062;6.920;2023-04-08T08:50:24;93922.31;;;-144.48;88.94
4123;BME280;2075;51.062;6.920;2023-04-08T08:53:09;93782.13;;;-144.48;92.88
4123;BME280;2075;51.062;6.920;2023-04-08T08:55:55;93002.19;;;-144.48;96.02
4123;BME280;2075;51.062;6.920;2023-04-08T08:58:41;93067.16;;;-144.48;95.37
4123;BME280;2075;51.062;6.920;2023-04-08T09:01:32;93709.00;;;-144.48;93.18
4123;BME280;2075;51.062;6.920;2023-04-08T09:04:19;93784.16;;;-144.48;91.70
4123;BME280;2075;51.062;6.920;2023-04-08T09:07:08;93735.41;;;-144.48;92.39
4123;BME280;2075;51.062;6.920;2023-04-08T09:15:18;93830.88;;;-144.48;91.85
4123;BME280;2075;51.062;6.920;2023-04-08T09:18:20;93743.53;;;-144.48;93.04
4123;BME280;2075;51.062;6.920;2023-04-08T09:21:06;93997.47;;;-144.48;90.04
4123;BME280;2075;51.062;6.920;2023-04-08T09:23:51;93960.91;;;-144.48;90.54
4123;BME280;2075;51.062;6.920;2023-04-08T09:26:37;93794.31;;;-144.48;92.18
4123;BME280;2075;51.062;6.920;2023-04-08T09:29:24;93769.94;;;-144.48;93.74
4123;BME280;2075;51.062;6.920;2023-04-08T09:32:10;93453.06;;;-144.48;94.76
4123;BME280;2075;51.062;6.920;2023-04-08T09:34:58;93536.34;;;-144.48;94.89
4123;BME280;2075;51.062;6.920;2023-04-08T09:37:43;92265.03;;;-144.48;97.87
4123;BME280;2075;51.062;6.920;2023-04-08T09:40:34;93461.19;;;-144.48;94.18
4123;BME280;2075;51.062;6.920;2023-04-08T09:43:23;93946.69;;;-144.48;89.63
4123;BME280;2075;51.062;6.920;2023-04-08T09:46:10;94074.66;;;-144.48;84.93
4123;BME280;2075;51.062;6.920;2023-04-08T09:49:00;93983.25;;;-144.48;90.02
4123;BME280;2075;51.062;6.920;2023-04-08T09:51:53;93865.44;;;-144.48;91.57
4123;BME280;2075;51.062;6.920;2023-04-08T09:54:52;93914.19;;;-144.48;91.27
4123;BME280;2075;51.062;6.920;2023-04-08T09:57:40;94011.69;;;-144.48;86.86
4123;BME280;2075;51.062;6.920;2023-04-08T10:00:31;94066.53;;;-144.48;83.98
4123;BME280;2075;51.062;6.920;2023-04-08T10:03:28;94050.28;;;-144.48;81.87
4123;BME280;2075;51.062;6.920;2023-04-08T10:06:14;94058.41;;;-144.48;78.78
4123;BME280;2075;51.062;6.920;2023-04-08T10:09:01;93997.47;;;-144.48;76.67
4123;BME280;2075;51.062;6.920;2023-04-08T10:11:47;94080.75;;;-144.48;78.18
4123;BME280;2075;51.062;6.920;2023-04-08T10:14:33;94056.38;;;-144.48;75.80
4123;BME280;2075;51.062;6.920;2023-04-08T10:17:25;94036.06;;;-144.48;72.62
4123;BME280;2075;51.062;6.920;2023-04-08T10:20:39;93960.91;;;-144.48;69.77
4123;BME280;2075;51.062;6.920;2023-04-08T10:26:46;93999.50;;;-144.48;69.86
4123;BME280;2075;51.062;6.920;2023-04-08T10:29:32;94058.41;;;-144.48;67.63
4123;BME280;2075;51.062;6.920;2023-04-08T10:32:27;94003.56;;;-144.48;70.65
4123;BME280;2075;51.062;6.920;2023-04-08T10:35:13;94164.06;;;-144.48;71.37
4123;BME280;2075;51.062;6.920;2023-04-08T10:37:59;94092.94;;;-144.48;70.73
4123;BME280;2075;51.062;6.920;2023-04-08T10:40:47;94078.72;;;-144.48;73.91
4123;BME280;2075;51.062;6.920;2023-04-08T10:43:35;94111.22;;;-144.48;73.29
4123;BME280;2075;51.062;6.920;2023-04-08T10:46:21;94147.81;;;-144.48;77.78
4123;BME280;2075;51.062;6.920;2023-04-08T10:49:06;94082.78;;;-144.48;76.88
4123;BME280;2075;51.062;6.920;2023-04-08T10:51:52;94131.56;;;-144.48;76.67
4123;BME280;2075;51.062;6.920;2023-04-08T10:54:37;94064.50;;;-144.48;73.03
4123;BME280;2075;51.062;6.920;2023-04-08T10:57:23;94080.75;;;-144.48;70.44
4123;BME280;2075;51.062;6.920;2023-04-08T11:00:17;93952.78;;;-144.48;67.70
4123;BME280;2075;51.062;6.920;2023-04-08T11:03:03;94019.81;;;-144.48;69.22
4123;BME280;2075;51.062;6.920;2023-04-08T11:05:50;93993.41;;;-144.48;69.62
4123;BME280;2075;51.062;6.920;2023-04-08T11:08:35;93954.81;;;-144.48;68.77
4123;BME280;2075;51.062;6.920;2023-04-08T11:11:21;93904.03;;;-144.48;66.54
4123;BME280;2075;51.062;6.920;2023-04-08T11:14:12;93897.94;;;-144.48;66.09
4123;BME280;2075;51.062;6.920;2023-04-08T11:17:02;93918.25;;;-144.48;65.22
4123;BME280;2075;51.062;6.920;2023-04-08T11:19:49;94119.34;;;-144.48;64.68
4123;BME280;2075;51.062;6.920;2023-04-08T11:22:35;93847.13;;;-144.48;63.17
4123;BME280;2075;51.062;6.920;2023-04-08T11:25:20;93912.16;;;-144.48;61.58
4123;BME280;2075;51.062;6.920;2023-04-08T11:28:07;93954.81;;;-144.48;65.49
4123;BME280;2075;51.062;6.920;2023-04-08T11:30:53;93977.16;;;-144.48;67.33
4123;BME280;2075;51.062;6.920;2023-04-08T11:33:45;93922.31;;;-144.48;68.13
4123;BME280;2075;51.062;6.920;2023-04-08T11:36:31;93993.41;;;-144.48;67.36
4123;BME280;2075;51.062;6.920;2023-04-08T11:39:21;94042.16;;;-144.48;68.65
4123;BME280;2075;51.062;6.920;2023-04-08T11:42:06;94036.06;;;-144.48;69.04
4123;BME280;2075;51.062;6.920;2023-04-08T11:44:52;94046.22;;;-144.48;67.84
4123;BME280;2075;51.062;6.920;2023-04-08T11:47:38;94029.97;;;-144.48;65.46
4123;BME280;2075;51.062;6.920;2023-04-08T11:50:25;94021.84;;;-144.48;67.26
4123;BME280;2075;51.062;6.920;2023-04-08T11:53:16;93979.19;;;-144.48;65.07
4123;BME280;2075;51.062;6.920;2023-04-08T11:56:15;93956.84;;;-144.48;67.57
4123;BME280;2075;51.062;6.920;2023-04-08T11:59:01;93979.19;;;-144.48;64.03
4123;BME280;2075;51.062;6.920;2023-04-08T12:01:47;93985.28;;;-144.48;64.08
4123;BME280;2075;51.062;6.920;2023-04-08T12:04:33;93887.78;;;-144.48;63.26
4123;BME280;2075;51.062;6.920;2023-04-08T12:07:20;93853.22;;;-144.48;60.67
4123;BME280;2075;51.062;6.920;2023-04-08T12:10:06;93904.03;;;-144.48;60.39
4123;BME280;2075;51.062;6.920;2023-04-08T12:12:52;93871.50;;;-144.48;59.86
4123;BME280;2075;51.062;6.920;2023-04-08T12:15:38;93912.16;;;-144.48;58.91
4123;BME280;2075;51.062;6.920;2023-04-08T12:18:24;93960.91;;;-144.48;61.25
4123;BME280;2075;51.062;6.920;2023-04-08T12:21:09;94214.84;;;-144.48;62.73
4123;BME280;2075;51.062;6.920;2023-04-08T12:23:56;93989.34;;;-144.48;63.22
4123;BME280;2075;51.062;6.920;2023-04-08T12:26:42;94082.78;;;-144.48;69.51
4123;BME280;2075;51.062;6.920;2023-04-08T12:29:28;94101.06;;;-144.48;68.51
4123;BME280;2075;51.062;6.920;2023-04-08T12:32:13;94099.03;;;-144.48;63.65
4123;BME280;2075;51.062;6.920;2023-04-08T12:34:59;94099.03;;;-144.48;63.57
4123;BME280;2075;51.062;6.920;2023-04-08T12:37:44;94153.91;;;-144.48;60.64
4123;BME280;2075;51.062;6.920;2023-04-08T12:40:31;94151.88;;;-144.48;57.71
4123;BME280;2075;51.062;6.920;2023-04-08T12:43:16;94129.53;;;-144.48;58.45
4123;BME280;2075;51.062;6.920;2023-04-08T12:46:02;94145.78;;;-144.48;55.99
4123;BME280;2075;51.062;6.920;2023-04-08T12:48:47;94151.88;;;-144.48;56.01
4123;BME280;2075;51.062;6.920;2023-04-08T12:51:33;94411.91;;;-144.48;57.67
4123;BME280;2075;51.062;6.920;2023-04-08T12:54:18;94086.84;;;-144.48;58.04
4123;BME280;2075;51.062;6.920;2023-04-08T12:57:06;94216.88;;;-144.48;57.64
4123;BME280;2075;51.062;6.920;2023-04-08T12:59:52;94147.81;;;-144.48;57.26
4123;BME280;2075;51.062;6.920;2023-04-08T13:02:37;94119.34;;;-144.48;56.05
4123;BME280;2075;51.062;6.920;2023-04-08T13:05:23;94099.03;;;-144.48;55.99
4123;BME280;2075;51.062;6.920;2023-04-08T13:08:08;94090.91;;;-144.48;54.88
4123;BME280;2075;51.062;6.920;2023-04-08T13:10:54;94117.31;;;-144.48;54.32
4123;BME280;2075;51.062;6.920;2023-04-08T13:13:41;94123.44;;;-144.48;54.14
4123;BME280;2075;51.062;6.920;2023-04-08T13:16:27;94119.34;;;-144.48;53.03
4123;BME280;2075;51.062;6.920;2023-04-08T13:19:12;94076.69;;;-144.48;52.34
4123;BME280;2075;51.062;6.920;2023-04-08T13:21:57;94119.34;;;-144.48;51.64
4123;BME280;2075;51.062;6.920;2023-04-08T13:24:43;94137.66;;;-144.48;53.80
4123;BME280;2075;51.062;6.920;2023-04-08T13:27:29;94133.59;;;-144.48;51.62
4123;BME280;2075;51.062;6.920;2023-04-08T13:30:16;94151.88;;;-144.48;53.40
4123;BME280;2075;51.062;6.920;2023-04-08T13:33:02;94121.38;;;-144.48;52.67
4123;BME280;2075;51.062;6.920;2023-04-08T13:35:48;94153.91;;;-144.48;53.13
4123;BME280;2075;51.062;6.920;2023-04-08T13:38:33;94153.91;;;-144.48;51.39
4123;BME280;2075;51.062;6.920;2023-04-08T13:41:19;94062.47;;;-144.48;50.19
4123;BME280;2075;51.062;6.920;2023-04-08T13:44:05;94092.94;;;-144.48;50.17
4123;BME280;2075;51.062;6.920;2023-04-08T13:46:52;94141.72;;;-144.48;51.37
4123;BME280;2075;51.062;6.920;2023-04-08T13:49:37;94115.28;;;-144.48;50.38
4123;BME280;2075;51.062;6.920;2023-04-08T13:52:23;94119.34;;;-144.48;51.23
4123;BME280;2075;51.062;6.920;2023-04-08T13:55:08;94105.13;;;-144.48;50.53
4123;BME280;2075;51.062;6.920;2023-04-08T13:57:54;94147.81;;;-144.48;50.40
4123;BME280;2075;51.062;6.920;2023-04-08T14:00:39;94123.44;;;-144.48;51.63
4123;BME280;2075;51.062;6.920;2023-04-08T14:03:26;94076.69;;;-144.48;51.48
4123;BME280;2075;51.062;6.920;2023-04-08T14:06:11;94111.22;;;-144.48;51.33
4123;BME280;2075;51.062;6.920;2023-04-08T14:08:57;93956.84;;;-144.48;49.75
4123;BME280;2075;51.062;6.920;2023-04-08T14:11:42;93979.19;;;-144.48;50.69
4123;BME280;2075;51.062;6.920;2023-04-08T14:14:28;94044.19;;;-144.48;51.31
4123;BME280;2075;51.062;6.920;2023-04-08T14:17:13;93975.13;;;-144.48;50.99
4123;BME280;2075;51.062;6.920;2023-04-08T14:20:00;94015.75;;;-144.48;52.37
4123;BME280;2075;51.062;6.920;2023-04-08T14:22:45;94007.63;;;-144.48;54.19
4123;BME280;2075;51.062;6.920;2023-04-08T14:25:30;94101.06;;;-144.48;58.78
4123;BME280;2075;51.062;6.920;2023-04-08T14:28:16;94109.19;;;-144.48;57.67
4123;BME280;2075;51.062;6.920;2023-04-08T14:31:01;94003.56;;;-144.48;55.81
4123;BME280;2075;51.062;6.920;2023-04-08T14:33:47;93895.91;;;-144.48;53.32
4123;BME280;2075;51.062;6.920;2023-04-08T14:36:34;93979.19;;;-144.48;54.98
4123;BME280;2075;51.062;6.920;2023-04-08T14:39:22;93936.53;;;-144.48;55.56
4123;BME280;2075;51.062;6.920;2023-04-08T14:42:08;94046.22;;;-144.48;61.27
4123;BME280;2075;51.062;6.920;2023-04-08T14:44:53;94070.59;;;-144.48;61.89
4123;BME280;2075;51.062;6.920;2023-04-08T14:47:40;94072.63;;;-144.48;61.64
4123;BME280;2075;51.062;6.920;2023-04-08T14:50:25;94009.66;;;-144.48;60.59
4123;BME280;2075;51.062;6.920;2023-04-08T14:53:12;94015.75;;;-144.48;59.01
4123;BME280;2075;51.062;6.920;2023-04-08T14:55:57;93971.06;;;-144.48;58.76
4123;BME280;2075;51.062;6.920;2023-04-08T14:58:42;94005.59;;;-144.48;59.36